Ikuta — JD2239 — position and weather

sailwx.info

Track history (hours):
 
Tides and Currents Weather Stations Pressure Air Temp Water Temp Dewpoint Dewpoint Depression Visibility Wind Speed Wind Dir Waves Ship Positions

Ikuta

Last reported at 2018-Feb-23 12:30 UTC. Time now 2018-Feb-23 12:39 UTC.
Position N 34°50' E 136°45'.

Length 96 m; draft 3.6 m.

Type: Cargo ship. MMSI: 431501857.

Date/timePositionNaut miles runAvg speedWind from/ knotsBaromVisibWave heightAir tempDewpointWater temp
2018-Feb-23 12:30N 34°50' E 136°45'612.7
2018-Feb-23 12:00N 34°56' E 136°46'612.3
2018-Feb-23 11:30N 35°01' E 136°50'2 3.6
2018-Feb-23 10:58N 35°03' E 136°50'0 0.0
2018-Feb-23 10:28N 35°03' E 136°50'0 0.0
2018-Feb-23 09:58N 35°03' E 136°50'0 0.0
2018-Feb-23 09:28N 35°03' E 136°50'0 0.0
2018-Feb-23 08:58N 35°03' E 136°50'1 2.7
2018-Feb-23 08:31N 35°02' E 136°50'4 7.9
2018-Feb-23 08:00N 34°59' E 136°48'0 0.1
2018-Feb-23 07:25N 34°58' E 136°48'0 0.0
2018-Feb-23 06:58N 34°58' E 136°48'0 0.0
2018-Feb-23 06:28N 34°58' E 136°48'0 0.0
2018-Feb-23 05:58N 34°58' E 136°48'1 1.7
2018-Feb-23 05:30N 34°59' E 136°48'3 6.5
2018-Feb-23 04:59N 35°02' E 136°50'0 0.0
2018-Feb-23 04:29N 35°02' E 136°50'0 0.0
2018-Feb-23 03:59N 35°02' E 136°50'2 3.6
2018-Feb-23 03:30N 35°00' E 136°50'3 6.9
2018-Feb-23 03:00N 34°58' E 136°47'0 0.0
2018-Feb-23 02:29N 34°58' E 136°47'0 0.1
2018-Feb-23 01:59N 34°58' E 136°47'0 0.0
2018-Feb-23 01:29N 34°58' E 136°47'0 0.0
2018-Feb-23 00:56N 34°58' E 136°47'3 7.5
2018-Feb-23 00:30N 34°55' E 136°47'510.9
2018-Feb-23 00:00N 34°49' E 136°48'510.9
2018-Feb-22 23:30N 34°44' E 136°50'611.0
2018-Feb-22 23:00N 34°40' E 136°54'611.0
2018-Feb-22 22:30N 34°35' E 136°58'7510.7
2018-Feb-22 15:31N 34°34' E 138°29'2111.9
2018-Feb-22 13:43N 34°36' E 138°55'2612.1
2018-Feb-22 11:33N 34°54' E 139°19'411.4
2018-Feb-22 11:12N 34°56' E 139°23'211.1
2018-Feb-22 10:59N 34°57' E 139°25'511.3
2018-Feb-22 10:30N 35°00' E 139°30'611.6
2018-Feb-22 10:00N 35°03' E 139°36'612.1
2018-Feb-22 09:30N 35°07' E 139°42'611.9
2018-Feb-22 09:00N 35°12' E 139°46'510.7
2018-Feb-22 08:30N 35°17' E 139°44'510.7
2018-Feb-22 08:01N 35°22' E 139°42'510.9
2018-Feb-22 07:31N 35°27' E 139°46'611.6
2018-Feb-22 07:01N 35°32' E 139°50'510.6
2018-Feb-22 06:31N 35°36' E 139°47'1 1.2
2018-Feb-22 05:54N 35°36' E 139°46'0 0.0
2018-Feb-22 05:30N 35°36' E 139°46'0 0.0
2018-Feb-22 04:57N 35°36' E 139°46'0 0.0
2018-Feb-22 04:27N 35°36' E 139°46'0 0.0
2018-Feb-22 02:27N 35°36' E 139°46'0 0.0
2018-Feb-22 01:54N 35°36' E 139°46'0 0.0
2018-Feb-22 01:15N 35°36' E 139°46'0 0.0
2018-Feb-22 01:00N 35°36' E 139°46'0 0.0
2018-Feb-22 00:27N 35°36' E 139°46'0 0.0
2018-Feb-21 23:56N 35°36' E 139°46'4 8.1
2018-Feb-21 23:30N 35°34' E 139°49'3 7.1
2018-Feb-21 23:00N 35°33' E 139°53'0 0.1
2018-Feb-21 22:29N 35°33' E 139°53'0 0.1
2018-Feb-21 21:59N 35°33' E 139°53'0 0.0
2018-Feb-21 21:23N 35°33' E 139°53'0 0.0
2018-Feb-21 20:50N 35°33' E 139°53'0 0.0
2018-Feb-21 20:26N 35°33' E 139°53'0 0.1
2018-Feb-21 19:59N 35°33' E 139°53'0 0.0
2018-Feb-21 19:29N 35°33' E 139°53'0 0.0
2018-Feb-21 18:50N 35°33' E 139°53'0 0.0
2018-Feb-21 18:26N 35°33' E 139°53'0 0.0
2018-Feb-21 17:59N 35°33' E 139°53'0 0.0
2018-Feb-21 17:23N 35°33' E 139°53'0 0.0
2018-Feb-21 16:59N 35°33' E 139°53'0 0.0
2018-Feb-21 16:26N 35°33' E 139°53'0 0.0
2018-Feb-21 15:56N 35°33' E 139°53'0 0.0
2018-Feb-21 15:26N 35°33' E 139°53'0 0.0
2018-Feb-21 14:59N 35°33' E 139°53'0 0.0
2018-Feb-21 14:29N 35°33' E 139°53'0 0.0
2018-Feb-21 13:59N 35°33' E 139°53'0 0.0
2018-Feb-21 13:29N 35°33' E 139°53'0 0.0
2018-Feb-21 12:56N 35°33' E 139°53'0 0.0
2018-Feb-21 12:26N 35°33' E 139°53'0 0.0
2018-Feb-21 11:59N 35°33' E 139°53'0 0.0
2018-Feb-21 11:26N 35°33' E 139°53'0 0.0
2018-Feb-21 10:59N 35°33' E 139°53'0 0.0
2018-Feb-21 07:02N 35°33' E 139°53'0 0.0
2018-Feb-21 06:56N 35°33' E 139°53'0 0.0
2018-Feb-21 06:20N 35°33' E 139°53'0 0.0
2018-Feb-21 05:59N 35°33' E 139°53'0 0.1
2018-Feb-21 05:14N 35°33' E 139°53'0 0.0
2018-Feb-21 04:56N 35°33' E 139°53'0 0.0
2018-Feb-21 04:29N 35°33' E 139°53'0 0.0
2018-Feb-21 03:50N 35°33' E 139°53'0 0.0
2018-Feb-21 03:29N 35°33' E 139°53'0 0.0
2018-Feb-21 02:59N 35°33' E 139°53'0 0.0
2018-Feb-21 02:17N 35°33' E 139°53'0 0.0
2018-Feb-21 01:59N 35°33' E 139°53'0 0.0
2018-Feb-21 01:29N 35°33' E 139°53'0 0.0
2018-Feb-21 00:59N 35°33' E 139°53'0 0.0
2018-Feb-21 00:29N 35°33' E 139°53'0 0.0
2018-Feb-20 23:59N 35°33' E 139°53'0 0.0
2018-Feb-20 23:23N 35°33' E 139°53'0 0.0
2018-Feb-20 22:53N 35°33' E 139°53'0 0.0
2018-Feb-20 22:26N 35°33' E 139°53'1 3.0
2018-Feb-20 22:00N 35°32' E 139°53'510.7
2018-Feb-20 21:30N 35°27' E 139°50'510.4
2018-Feb-20 21:00N 35°23' E 139°46'510.4
2018-Feb-20 20:31N 35°18' E 139°44'510.7
2018-Feb-20 20:00N 35°13' E 139°47'510.6
2018-Feb-20 19:30N 35°08' E 139°46'4 8.9
2018-Feb-20 19:00N 35°04' E 139°43'5 9.2
2018-Feb-20 18:30N 35°01' E 139°39'4 8.8
2018-Feb-20 18:00N 34°58' E 139°35'4 8.8
2018-Feb-20 17:30N 34°56' E 139°30'4 8.9
2018-Feb-20 17:00N 34°53' E 139°26'5 9.8
2018-Feb-20 16:28N 34°50' E 139°21'811.6
2018-Feb-20 15:47N 34°45' E 139°14'512.1
2018-Feb-20 15:23N 34°41' E 139°10'410.7
2018-Feb-20 15:00N 34°39' E 139°05'711.3
2018-Feb-20 14:24N 34°36' E 138°58'612.4
2018-Feb-20 13:52N 34°35' E 138°50'411.4
2018-Feb-20 13:29N 34°34' E 138°45'611.1
2018-Feb-20 12:58N 34°33' E 138°38'6412.0
2018-Feb-20 07:38N 34°32' E 137°20'312.2
2018-Feb-20 07:24N 34°32' E 137°17'512.1
2018-Feb-20 07:00N 34°32' E 137°11'611.7
2018-Feb-20 06:27N 34°32' E 137°03'511.0
2018-Feb-20 06:00N 34°35' E 136°58'611.7
2018-Feb-20 05:30N 34°38' E 136°53'611.8
2018-Feb-20 05:00N 34°43' E 136°48'611.9
2018-Feb-20 04:30N 34°49' E 136°46'712.2
2018-Feb-20 03:58N 34°55' E 136°46'511.7
2018-Feb-20 03:30N 34°60' E 136°49'3 6.4
2018-Feb-20 03:00N 35°03' E 136°50'0 0.0
2018-Feb-20 02:29N 35°03' E 136°50'0 0.0
2018-Feb-20 01:59N 35°03' E 136°50'0 0.0
2018-Feb-20 01:29N 35°03' E 136°50'0 0.0
2018-Feb-20 00:59N 35°03' E 136°50'0 0.0
2018-Feb-20 00:29N 35°03' E 136°50'0 0.0
2018-Feb-19 23:59N 35°03' E 136°50'0 0.0
2018-Feb-19 23:29N 35°03' E 136°50'0 0.1
2018-Feb-19 23:00N 35°03' E 136°50'4 8.2
2018-Feb-19 22:30N 34°59' E 136°49'1 1.0
2018-Feb-19 21:58N 34°59' E 136°48'0 0.0
2018-Feb-19 21:25N 34°59' E 136°48'0 0.1
2018-Feb-19 20:58N 34°59' E 136°48'1 3.1
2018-Feb-19 20:30N 34°57' E 136°47'510.1
2018-Feb-19 20:00N 34°52' E 136°47'510.1
2018-Feb-19 19:30N 34°47' E 136°48'5 9.7
2018-Feb-19 19:00N 34°43' E 136°51'5 9.8
2018-Feb-19 18:30N 34°39' E 136°54'5 9.8
2018-Feb-19 17:57N 34°35' E 136°59'60 9.7
2018-Feb-19 11:48N 34°33' E 138°11'5 9.1
2018-Feb-19 11:16N 34°33' E 138°17'3 9.0
2018-Feb-19 10:58N 34°34' E 138°20'4 9.1
2018-Feb-19 10:29N 34°34' E 138°25'5 9.3
2018-Feb-19 10:00N 34°35' E 138°31'1910.0
2018-Feb-19 08:04N 34°36' E 138°54'111.0
2018-Feb-19 08:00N 34°36' E 138°55'711.0
2018-Feb-19 07:19N 34°40' E 139°03'2211.3
2018-Feb-19 05:23N 34°54' E 139°23'511.3
2018-Feb-19 04:55N 34°57' E 139°28'511.0
2018-Feb-19 04:30N 35°00' E 139°33'611.2
2018-Feb-19 04:00N 35°03' E 139°38'611.6
2018-Feb-19 03:30N 35°08' E 139°43'612.1
2018-Feb-19 03:00N 35°13' E 139°46'611.4
2018-Feb-19 02:30N 35°18' E 139°43'510.7
2018-Feb-19 02:00N 35°24' E 139°42'3 5.5
2018-Feb-19 01:30N 35°26' E 139°41'0 0.0
2018-Feb-19 00:58N 35°26' E 139°41'0 0.0
2018-Feb-19 00:28N 35°26' E 139°41'0 0.0
2018-Feb-18 23:55N 35°26' E 139°41'0 0.0
2018-Feb-18 23:28N 35°26' E 139°41'0 0.0
2018-Feb-18 22:58N 35°26' E 139°41'0 0.0
2018-Feb-18 22:30N 35°26' E 139°41'3 5.5
2018-Feb-18 22:00N 35°29' E 139°39'0 0.0
2018-Feb-18 21:30N 35°29' E 139°39'0 0.0
2018-Feb-18 21:00N 35°29' E 139°39'0 0.0
2018-Feb-18 20:30N 35°29' E 139°39'0 0.0
2018-Feb-18 20:00N 35°29' E 139°39'0 0.0
2018-Feb-18 19:30N 35°29' E 139°39'0 0.0
2018-Feb-18 19:00N 35°29' E 139°39'0 0.0
2018-Feb-18 18:30N 35°29' E 139°39'0 0.0
2018-Feb-18 18:00N 35°29' E 139°39'0 0.0
2018-Feb-18 17:30N 35°29' E 139°39'0 0.0
2018-Feb-18 17:00N 35°29' E 139°39'0 0.0
2018-Feb-18 16:30N 35°29' E 139°39'0 0.0
2018-Feb-18 16:00N 35°29' E 139°39'0 0.0
2018-Feb-18 15:30N 35°29' E 139°39'0 0.0
2018-Feb-18 15:00N 35°29' E 139°39'0 0.0
2018-Feb-18 14:30N 35°29' E 139°39'0 0.0
2018-Feb-18 14:00N 35°29' E 139°39'0 0.0
2018-Feb-18 13:30N 35°29' E 139°39'0 0.0
2018-Feb-18 13:00N 35°29' E 139°39'0 0.0
2018-Feb-18 12:30N 35°29' E 139°39'0 0.0
2018-Feb-18 11:57N 35°29' E 139°39'0 0.0
2018-Feb-18 11:30N 35°29' E 139°39'0 0.0
2018-Feb-18 11:00N 35°29' E 139°39'0 0.0
2018-Feb-18 10:30N 35°29' E 139°39'0 0.0
2018-Feb-18 09:57N 35°29' E 139°39'0 0.0
2018-Feb-18 09:30N 35°29' E 139°39'0 0.0
2018-Feb-18 09:00N 35°29' E 139°39'0 0.0
2018-Feb-18 08:30N 35°29' E 139°39'0 0.0
2018-Feb-18 08:00N 35°29' E 139°39'0 0.0
2018-Feb-18 07:30N 35°29' E 139°39'0 0.0
2018-Feb-18 07:00N 35°29' E 139°39'0 0.0
2018-Feb-18 06:30N 35°29' E 139°39'0 0.0
2018-Feb-18 06:00N 35°29' E 139°39'0 0.0
2018-Feb-18 05:30N 35°29' E 139°39'0 0.0
2018-Feb-18 05:00N 35°29' E 139°39'0 0.0
2018-Feb-18 04:30N 35°29' E 139°39'0 0.0
2018-Feb-18 04:00N 35°29' E 139°39'0 0.0
2018-Feb-18 03:30N 35°29' E 139°39'0 0.0
2018-Feb-18 03:00N 35°29' E 139°39'0 0.0
2018-Feb-18 02:30N 35°29' E 139°39'0 0.0
2018-Feb-18 02:00N 35°29' E 139°39'0 0.0
2018-Feb-18 01:30N 35°29' E 139°39'0 0.0
2018-Feb-18 01:00N 35°29' E 139°39'0 0.0
2018-Feb-18 00:30N 35°29' E 139°39'0 0.0
2018-Feb-18 00:00N 35°29' E 139°39'0 0.0
2018-Feb-17 23:30N 35°29' E 139°39'3 5.4
2018-Feb-17 23:00N 35°27' E 139°41'4 7.3
2018-Feb-17 22:30N 35°24' E 139°44'0 0.8
2018-Feb-17 21:59N 35°23' E 139°44'0 0.0
2018-Feb-17 21:29N 35°23' E 139°44'0 0.0
2018-Feb-17 20:59N 35°23' E 139°44'0 0.0
2018-Feb-17 20:29N 35°23' E 139°44'0 0.0
2018-Feb-17 19:59N 35°23' E 139°44'1 1.6
2018-Feb-17 19:30N 35°23' E 139°43'5 9.6
2018-Feb-17 19:00N 35°18' E 139°45'5 9.6
2018-Feb-17 18:30N 35°14' E 139°47'5 9.5
2018-Feb-17 18:00N 35°09' E 139°46'4 8.9
2018-Feb-17 17:30N 35°04' E 139°45'10 8.3
2018-Feb-17 16:19N 34°55' E 139°46'3 9.7
2018-Feb-17 16:00N 34°52' E 139°48'  
2018-Feb-14 15:36N 35°00' E 140°12'312.4
2018-Feb-14 15:20N 34°58' E 140°09'1712.2
2018-Feb-14 13:59N 34°52' E 139°50'4 9.3
2018-Feb-14 13:30N 34°55' E 139°46'5 9.9
2018-Feb-14 12:59N 35°00' E 139°44'4 8.2
2018-Feb-14 12:30N 35°04' E 139°44'4 8.3
2018-Feb-14 12:00N 35°08' E 139°45'4 9.1
2018-Feb-14 11:30N 35°13' E 139°46'611.7
2018-Feb-14 11:01N 35°18' E 139°44'611.3
2018-Feb-14 10:30N 35°24' E 139°43'510.1
2018-Feb-14 10:00N 35°27' E 139°47'510.1
2018-Feb-14 09:30N 35°31' E 139°51'611.3
2018-Feb-14 09:00N 35°35' E 139°47'1 0.6
2018-Feb-14 07:37N 35°36' E 139°47'0 1.4
2018-Feb-14 07:30N 35°36' E 139°47'5 9.0
2018-Feb-14 06:59N 35°33' E 139°51'510.0
2018-Feb-14 06:31N 35°29' E 139°48'510.5
2018-Feb-14 06:01N 35°26' E 139°43'2 2.9
2018-Feb-14 05:28N 35°26' E 139°41'0 0.0
2018-Feb-14 04:58N 35°26' E 139°41'0 0.0
2018-Feb-14 04:28N 35°26' E 139°41'0 0.0
2018-Feb-14 03:58N 35°26' E 139°41'0 0.1
2018-Feb-14 03:30N 35°26' E 139°41'3 5.4
2018-Feb-14 03:00N 35°25' E 139°43'611.4
2018-Feb-14 02:30N 35°19' E 139°44'611.2
2018-Feb-14 02:01N 35°14' E 139°47'611.3
2018-Feb-14 01:30N 35°08' E 139°46'611.2
2018-Feb-14 01:00N 35°03' E 139°44'  
Track history (hours):
 
Tides and Currents Weather Stations Pressure Air Temp Water Temp Dewpoint Dewpoint Depression Visibility Wind Speed Wind Dir Waves Ship Positions

Ikuta

Last reported at 2018-Feb-23 12:30 UTC. Time now 2018-Feb-23 12:39 UTC.
Position N 34°50' E 136°45'.

Length 96 m; draft 3.6 m.

Type: Cargo ship. MMSI: 431501857.

Date/timePositionNaut miles runAvg speedWind from/ knotsBaromVisibWave heightAir tempDewpointWater temp
2018-Feb-23 12:30N 34°50' E 136°45'612.7
2018-Feb-23 12:00N 34°56' E 136°46'612.3
2018-Feb-23 11:30N 35°01' E 136°50'2 3.6
2018-Feb-23 10:58N 35°03' E 136°50'0 0.0
2018-Feb-23 10:28N 35°03' E 136°50'0 0.0
2018-Feb-23 09:58N 35°03' E 136°50'0 0.0
2018-Feb-23 09:28N 35°03' E 136°50'0 0.0
2018-Feb-23 08:58N 35°03' E 136°50'1 2.7
2018-Feb-23 08:31N 35°02' E 136°50'4 7.9
2018-Feb-23 08:00N 34°59' E 136°48'0 0.1
2018-Feb-23 07:25N 34°58' E 136°48'0 0.0
2018-Feb-23 06:58N 34°58' E 136°48'0 0.0
2018-Feb-23 06:28N 34°58' E 136°48'0 0.0
2018-Feb-23 05:58N 34°58' E 136°48'1 1.7
2018-Feb-23 05:30N 34°59' E 136°48'3 6.5
2018-Feb-23 04:59N 35°02' E 136°50'0 0.0
2018-Feb-23 04:29N 35°02' E 136°50'0 0.0
2018-Feb-23 03:59N 35°02' E 136°50'2 3.6
2018-Feb-23 03:30N 35°00' E 136°50'3 6.9
2018-Feb-23 03:00N 34°58' E 136°47'0 0.0
2018-Feb-23 02:29N 34°58' E 136°47'0 0.1
2018-Feb-23 01:59N 34°58' E 136°47'0 0.0
2018-Feb-23 01:29N 34°58' E 136°47'0 0.0
2018-Feb-23 00:56N 34°58' E 136°47'3 7.5
2018-Feb-23 00:30N 34°55' E 136°47'510.9
2018-Feb-23 00:00N 34°49' E 136°48'510.9
2018-Feb-22 23:30N 34°44' E 136°50'611.0
2018-Feb-22 23:00N 34°40' E 136°54'611.0
2018-Feb-22 22:30N 34°35' E 136°58'7510.7
2018-Feb-22 15:31N 34°34' E 138°29'2111.9
2018-Feb-22 13:43N 34°36' E 138°55'2612.1
2018-Feb-22 11:33N 34°54' E 139°19'411.4
2018-Feb-22 11:12N 34°56' E 139°23'211.1
2018-Feb-22 10:59N 34°57' E 139°25'511.3
2018-Feb-22 10:30N 35°00' E 139°30'611.6
2018-Feb-22 10:00N 35°03' E 139°36'612.1
2018-Feb-22 09:30N 35°07' E 139°42'611.9
2018-Feb-22 09:00N 35°12' E 139°46'510.7
2018-Feb-22 08:30N 35°17' E 139°44'510.7
2018-Feb-22 08:01N 35°22' E 139°42'510.9
2018-Feb-22 07:31N 35°27' E 139°46'611.6
2018-Feb-22 07:01N 35°32' E 139°50'510.6
2018-Feb-22 06:31N 35°36' E 139°47'1 1.2
2018-Feb-22 05:54N 35°36' E 139°46'0 0.0
2018-Feb-22 05:30N 35°36' E 139°46'0 0.0
2018-Feb-22 04:57N 35°36' E 139°46'0 0.0
2018-Feb-22 04:27N 35°36' E 139°46'0 0.0
2018-Feb-22 02:27N 35°36' E 139°46'0 0.0
2018-Feb-22 01:54N 35°36' E 139°46'0 0.0
2018-Feb-22 01:15N 35°36' E 139°46'0 0.0
2018-Feb-22 01:00N 35°36' E 139°46'0 0.0
2018-Feb-22 00:27N 35°36' E 139°46'0 0.0
2018-Feb-21 23:56N 35°36' E 139°46'4 8.1
2018-Feb-21 23:30N 35°34' E 139°49'3 7.1
2018-Feb-21 23:00N 35°33' E 139°53'0 0.1
2018-Feb-21 22:29N 35°33' E 139°53'0 0.1
2018-Feb-21 21:59N 35°33' E 139°53'0 0.0
2018-Feb-21 21:23N 35°33' E 139°53'0 0.0
2018-Feb-21 20:50N 35°33' E 139°53'0 0.0
2018-Feb-21 20:26N 35°33' E 139°53'0 0.1
2018-Feb-21 19:59N 35°33' E 139°53'0 0.0
2018-Feb-21 19:29N 35°33' E 139°53'0 0.0
2018-Feb-21 18:50N 35°33' E 139°53'0 0.0
2018-Feb-21 18:26N 35°33' E 139°53'0 0.0
2018-Feb-21 17:59N 35°33' E 139°53'0 0.0
2018-Feb-21 17:23N 35°33' E 139°53'0 0.0
2018-Feb-21 16:59N 35°33' E 139°53'0 0.0
2018-Feb-21 16:26N 35°33' E 139°53'0 0.0
2018-Feb-21 15:56N 35°33' E 139°53'0 0.0
2018-Feb-21 15:26N 35°33' E 139°53'0 0.0
2018-Feb-21 14:59N 35°33' E 139°53'0 0.0
2018-Feb-21 14:29N 35°33' E 139°53'0 0.0
2018-Feb-21 13:59N 35°33' E 139°53'0 0.0
2018-Feb-21 13:29N 35°33' E 139°53'0 0.0
2018-Feb-21 12:56N 35°33' E 139°53'0 0.0
2018-Feb-21 12:26N 35°33' E 139°53'0 0.0
2018-Feb-21 11:59N 35°33' E 139°53'0 0.0
2018-Feb-21 11:26N 35°33' E 139°53'0 0.0
2018-Feb-21 10:59N 35°33' E 139°53'0 0.0
2018-Feb-21 07:02N 35°33' E 139°53'0 0.0
2018-Feb-21 06:56N 35°33' E 139°53'0 0.0
2018-Feb-21 06:20N 35°33' E 139°53'0 0.0
2018-Feb-21 05:59N 35°33' E 139°53'0 0.1
2018-Feb-21 05:14N 35°33' E 139°53'0 0.0
2018-Feb-21 04:56N 35°33' E 139°53'0 0.0
2018-Feb-21 04:29N 35°33' E 139°53'0 0.0
2018-Feb-21 03:50N 35°33' E 139°53'0 0.0
2018-Feb-21 03:29N 35°33' E 139°53'0 0.0
2018-Feb-21 02:59N 35°33' E 139°53'0 0.0
2018-Feb-21 02:17N 35°33' E 139°53'0 0.0
2018-Feb-21 01:59N 35°33' E 139°53'0 0.0
2018-Feb-21 01:29N 35°33' E 139°53'0 0.0
2018-Feb-21 00:59N 35°33' E 139°53'0 0.0
2018-Feb-21 00:29N 35°33' E 139°53'0 0.0
2018-Feb-20 23:59N 35°33' E 139°53'0 0.0
2018-Feb-20 23:23N 35°33' E 139°53'0 0.0
2018-Feb-20 22:53N 35°33' E 139°53'0 0.0
2018-Feb-20 22:26N 35°33' E 139°53'1 3.0
2018-Feb-20 22:00N 35°32' E 139°53'510.7
2018-Feb-20 21:30N 35°27' E 139°50'510.4
2018-Feb-20 21:00N 35°23' E 139°46'510.4
2018-Feb-20 20:31N 35°18' E 139°44'510.7
2018-Feb-20 20:00N 35°13' E 139°47'510.6
2018-Feb-20 19:30N 35°08' E 139°46'4 8.9
2018-Feb-20 19:00N 35°04' E 139°43'5 9.2
2018-Feb-20 18:30N 35°01' E 139°39'4 8.8
2018-Feb-20 18:00N 34°58' E 139°35'4 8.8
2018-Feb-20 17:30N 34°56' E 139°30'4 8.9
2018-Feb-20 17:00N 34°53' E 139°26'5 9.8
2018-Feb-20 16:28N 34°50' E 139°21'811.6
2018-Feb-20 15:47N 34°45' E 139°14'512.1
2018-Feb-20 15:23N 34°41' E 139°10'410.7
2018-Feb-20 15:00N 34°39' E 139°05'711.3
2018-Feb-20 14:24N 34°36' E 138°58'612.4
2018-Feb-20 13:52N 34°35' E 138°50'411.4
2018-Feb-20 13:29N 34°34' E 138°45'611.1
2018-Feb-20 12:58N 34°33' E 138°38'6412.0
2018-Feb-20 07:38N 34°32' E 137°20'312.2
2018-Feb-20 07:24N 34°32' E 137°17'512.1
2018-Feb-20 07:00N 34°32' E 137°11'611.7
2018-Feb-20 06:27N 34°32' E 137°03'511.0
2018-Feb-20 06:00N 34°35' E 136°58'611.7
2018-Feb-20 05:30N 34°38' E 136°53'611.8
2018-Feb-20 05:00N 34°43' E 136°48'611.9
2018-Feb-20 04:30N 34°49' E 136°46'712.2
2018-Feb-20 03:58N 34°55' E 136°46'511.7
2018-Feb-20 03:30N 34°60' E 136°49'3 6.4
2018-Feb-20 03:00N 35°03' E 136°50'0 0.0
2018-Feb-20 02:29N 35°03' E 136°50'0 0.0
2018-Feb-20 01:59N 35°03' E 136°50'0 0.0
2018-Feb-20 01:29N 35°03' E 136°50'0 0.0
2018-Feb-20 00:59N 35°03' E 136°50'0 0.0
2018-Feb-20 00:29N 35°03' E 136°50'0 0.0
2018-Feb-19 23:59N 35°03' E 136°50'0 0.0
2018-Feb-19 23:29N 35°03' E 136°50'0 0.1
2018-Feb-19 23:00N 35°03' E 136°50'4 8.2
2018-Feb-19 22:30N 34°59' E 136°49'1 1.0
2018-Feb-19 21:58N 34°59' E 136°48'0 0.0
2018-Feb-19 21:25N 34°59' E 136°48'0 0.1
2018-Feb-19 20:58N 34°59' E 136°48'1 3.1
2018-Feb-19 20:30N 34°57' E 136°47'510.1
2018-Feb-19 20:00N 34°52' E 136°47'510.1
2018-Feb-19 19:30N 34°47' E 136°48'5 9.7
2018-Feb-19 19:00N 34°43' E 136°51'5 9.8
2018-Feb-19 18:30N 34°39' E 136°54'5 9.8
2018-Feb-19 17:57N 34°35' E 136°59'60 9.7
2018-Feb-19 11:48N 34°33' E 138°11'5 9.1
2018-Feb-19 11:16N 34°33' E 138°17'3 9.0
2018-Feb-19 10:58N 34°34' E 138°20'4 9.1
2018-Feb-19 10:29N 34°34' E 138°25'5 9.3
2018-Feb-19 10:00N 34°35' E 138°31'1910.0
2018-Feb-19 08:04N 34°36' E 138°54'111.0
2018-Feb-19 08:00N 34°36' E 138°55'711.0
2018-Feb-19 07:19N 34°40' E 139°03'2211.3
2018-Feb-19 05:23N 34°54' E 139°23'511.3
2018-Feb-19 04:55N 34°57' E 139°28'511.0
2018-Feb-19 04:30N 35°00' E 139°33'611.2
2018-Feb-19 04:00N 35°03' E 139°38'611.6
2018-Feb-19 03:30N 35°08' E 139°43'612.1
2018-Feb-19 03:00N 35°13' E 139°46'611.4
2018-Feb-19 02:30N 35°18' E 139°43'510.7
2018-Feb-19 02:00N 35°24' E 139°42'3 5.5
2018-Feb-19 01:30N 35°26' E 139°41'0 0.0
2018-Feb-19 00:58N 35°26' E 139°41'0 0.0
2018-Feb-19 00:28N 35°26' E 139°41'0 0.0
2018-Feb-18 23:55N 35°26' E 139°41'0 0.0
2018-Feb-18 23:28N 35°26' E 139°41'0 0.0
2018-Feb-18 22:58N 35°26' E 139°41'0 0.0
2018-Feb-18 22:30N 35°26' E 139°41'3 5.5
2018-Feb-18 22:00N 35°29' E 139°39'0 0.0
2018-Feb-18 21:30N 35°29' E 139°39'0 0.0
2018-Feb-18 21:00N 35°29' E 139°39'0 0.0
2018-Feb-18 20:30N 35°29' E 139°39'0 0.0
2018-Feb-18 20:00N 35°29' E 139°39'0 0.0
2018-Feb-18 19:30N 35°29' E 139°39'0 0.0
2018-Feb-18 19:00N 35°29' E 139°39'0 0.0
2018-Feb-18 18:30N 35°29' E 139°39'0 0.0
2018-Feb-18 18:00N 35°29' E 139°39'0 0.0
2018-Feb-18 17:30N 35°29' E 139°39'0 0.0
2018-Feb-18 17:00N 35°29' E 139°39'0 0.0
2018-Feb-18 16:30N 35°29' E 139°39'0 0.0
2018-Feb-18 16:00N 35°29' E 139°39'0 0.0
2018-Feb-18 15:30N 35°29' E 139°39'0 0.0
2018-Feb-18 15:00N 35°29' E 139°39'0 0.0
2018-Feb-18 14:30N 35°29' E 139°39'0 0.0
2018-Feb-18 14:00N 35°29' E 139°39'0 0.0
2018-Feb-18 13:30N 35°29' E 139°39'0 0.0
2018-Feb-18 13:00N 35°29' E 139°39'0 0.0
2018-Feb-18 12:30N 35°29' E 139°39'0 0.0
2018-Feb-18 11:57N 35°29' E 139°39'0 0.0
2018-Feb-18 11:30N 35°29' E 139°39'0 0.0
2018-Feb-18 11:00N 35°29' E 139°39'0 0.0
2018-Feb-18 10:30N 35°29' E 139°39'0 0.0
2018-Feb-18 09:57N 35°29' E 139°39'0 0.0
2018-Feb-18 09:30N 35°29' E 139°39'0 0.0
2018-Feb-18 09:00N 35°29' E 139°39'0 0.0
2018-Feb-18 08:30N 35°29' E 139°39'0 0.0
2018-Feb-18 08:00N 35°29' E 139°39'0 0.0
2018-Feb-18 07:30N 35°29' E 139°39'0 0.0
2018-Feb-18 07:00N 35°29' E 139°39'0 0.0
2018-Feb-18 06:30N 35°29' E 139°39'0 0.0
2018-Feb-18 06:00N 35°29' E 139°39'0 0.0
2018-Feb-18 05:30N 35°29' E 139°39'0 0.0
2018-Feb-18 05:00N 35°29' E 139°39'0 0.0
2018-Feb-18 04:30N 35°29' E 139°39'0 0.0
2018-Feb-18 04:00N 35°29' E 139°39'0 0.0
2018-Feb-18 03:30N 35°29' E 139°39'0 0.0
2018-Feb-18 03:00N 35°29' E 139°39'0 0.0
2018-Feb-18 02:30N 35°29' E 139°39'0 0.0
2018-Feb-18 02:00N 35°29' E 139°39'0 0.0
2018-Feb-18 01:30N 35°29' E 139°39'0 0.0
2018-Feb-18 01:00N 35°29' E 139°39'0 0.0
2018-Feb-18 00:30N 35°29' E 139°39'0 0.0
2018-Feb-18 00:00N 35°29' E 139°39'0 0.0
2018-Feb-17 23:30N 35°29' E 139°39'3 5.4
2018-Feb-17 23:00N 35°27' E 139°41'4 7.3
2018-Feb-17 22:30N 35°24' E 139°44'0 0.8
2018-Feb-17 21:59N 35°23' E 139°44'0 0.0
2018-Feb-17 21:29N 35°23' E 139°44'0 0.0
2018-Feb-17 20:59N 35°23' E 139°44'0 0.0
2018-Feb-17 20:29N 35°23' E 139°44'0 0.0
2018-Feb-17 19:59N 35°23' E 139°44'1 1.6
2018-Feb-17 19:30N 35°23' E 139°43'5 9.6
2018-Feb-17 19:00N 35°18' E 139°45'5 9.6
2018-Feb-17 18:30N 35°14' E 139°47'5 9.5
2018-Feb-17 18:00N 35°09' E 139°46'4 8.9
2018-Feb-17 17:30N 35°04' E 139°45'10 8.3
2018-Feb-17 16:19N 34°55' E 139°46'3 9.7
2018-Feb-17 16:00N 34°52' E 139°48'  
2018-Feb-14 15:36N 35°00' E 140°12'312.4
2018-Feb-14 15:20N 34°58' E 140°09'1712.2
2018-Feb-14 13:59N 34°52' E 139°50'4 9.3
2018-Feb-14 13:30N 34°55' E 139°46'5 9.9
2018-Feb-14 12:59N 35°00' E 139°44'4 8.2
2018-Feb-14 12:30N 35°04' E 139°44'4 8.3
2018-Feb-14 12:00N 35°08' E 139°45'4 9.1
2018-Feb-14 11:30N 35°13' E 139°46'611.7
2018-Feb-14 11:01N 35°18' E 139°44'611.3
2018-Feb-14 10:30N 35°24' E 139°43'510.1
2018-Feb-14 10:00N 35°27' E 139°47'510.1
2018-Feb-14 09:30N 35°31' E 139°51'611.3
2018-Feb-14 09:00N 35°35' E 139°47'1 0.6
2018-Feb-14 07:37N 35°36' E 139°47'0 1.4
2018-Feb-14 07:30N 35°36' E 139°47'5 9.0
2018-Feb-14 06:59N 35°33' E 139°51'510.0
2018-Feb-14 06:31N 35°29' E 139°48'510.5
2018-Feb-14 06:01N 35°26' E 139°43'2 2.9
2018-Feb-14 05:28N 35°26' E 139°41'0 0.0
2018-Feb-14 04:58N 35°26' E 139°41'0 0.0
2018-Feb-14 04:28N 35°26' E 139°41'0 0.0
2018-Feb-14 03:58N 35°26' E 139°41'0 0.1
2018-Feb-14 03:30N 35°26' E 139°41'3 5.4
2018-Feb-14 03:00N 35°25' E 139°43'611.4
2018-Feb-14 02:30N 35°19' E 139°44'611.2
2018-Feb-14 02:01N 35°14' E 139°47'611.3
2018-Feb-14 01:30N 35°08' E 139°46'611.2
2018-Feb-14 01:00N 35°03' E 139°44'  

Dump ship's entire track history